createdAt,value
2022-10-03T00:00:11.374Z,14.70
2022-10-03T00:03:22.019Z,15.90
2022-10-03T00:06:03.065Z,13.67
2022-10-03T00:08:50.060Z,14.00
2022-10-03T00:11:27.526Z,11.67
2022-10-03T00:14:01.351Z,11.80
2022-10-03T00:16:40.060Z,10.10
2022-10-03T00:19:18.119Z,8.47
2022-10-03T00:21:56.700Z,9.50
2022-10-03T00:24:41.998Z,14.50
2022-10-03T00:27:17.083Z,10.33
2022-10-03T00:29:57.696Z,12.53
2022-10-03T00:32:43.300Z,11.00
2022-10-03T00:35:31.445Z,14.33
2022-10-03T00:38:18.054Z,13.63
2022-10-03T00:41:09.585Z,12.67
2022-10-03T00:44:02.372Z,8.97
2022-10-03T00:46:47.643Z,12.57
2022-10-03T00:49:38.234Z,11.20
2022-10-03T00:52:22.583Z,12.03
2022-10-03T00:55:03.806Z,14.20
2022-10-03T00:57:49.070Z,8.77
2022-10-03T01:00:21.794Z,11.00
2022-10-03T01:03:12.346Z,11.67
2022-10-03T01:05:51.928Z,14.93
2022-10-03T01:08:42.075Z,9.43
2022-10-03T01:11:24.879Z,12.90
2022-10-03T01:14:04.567Z,11.07
2022-10-03T01:16:43.174Z,11.77
2022-10-03T01:19:29.389Z,11.73
2022-10-03T01:22:09.982Z,12.27
2022-10-03T01:24:55.405Z,13.17
2022-10-03T01:27:56.911Z,13.07
2022-10-03T01:30:29.875Z,10.37
2022-10-03T01:33:04.657Z,13.17
2022-10-03T01:35:43.458Z,13.33
2022-10-03T01:38:20.687Z,11.03
2022-10-03T01:40:55.239Z,14.53
2022-10-03T01:43:32.838Z,11.10
2022-10-03T01:46:12.460Z,15.90
2022-10-03T01:48:48.753Z,11.63
2022-10-03T01:51:22.666Z,12.17
2022-10-03T01:54:02.884Z,10.97
2022-10-03T01:56:36.908Z,9.20
2022-10-03T01:59:09.738Z,14.27
2022-10-03T02:01:48.409Z,12.63
2022-10-03T02:04:23.931Z,14.60
2022-10-03T02:07:00.660Z,13.77
2022-10-03T02:09:34.645Z,11.27
2022-10-03T02:12:15.124Z,10.60
2022-10-03T02:14:54.411Z,11.07
2022-10-03T02:17:31.417Z,13.73
2022-10-03T02:20:07.754Z,12.87
2022-10-03T02:22:42.531Z,13.53
2022-10-03T02:25:26.475Z,13.20
2022-10-03T02:28:30.299Z,14.90
2022-10-03T02:31:20.869Z,11.37
2022-10-03T02:34:16.913Z,11.30
2022-10-03T02:37:17.104Z,15.07
2022-10-03T02:40:10.259Z,11.97
2022-10-03T02:43:17.235Z,11.90
2022-10-03T02:46:27.520Z,13.33
2022-10-03T02:49:29.278Z,12.70
2022-10-03T02:52:24.511Z,12.97
2022-10-03T02:55:07.777Z,14.07
2022-10-03T02:58:22.367Z,12.83
2022-10-03T03:01:14.306Z,11.90
2022-10-03T03:04:02.192Z,10.20
2022-10-03T03:06:55.400Z,10.03
2022-10-03T03:09:58.244Z,10.87
2022-10-03T03:12:50.537Z,6.23
2022-10-03T03:15:56.103Z,10.73
2022-10-03T03:18:34.461Z,11.70
2022-10-03T03:21:21.630Z,10.77
2022-10-03T03:24:14.052Z,10.97
2022-10-03T03:27:10.785Z,8.30
2022-10-03T03:29:46.336Z,11.63
2022-10-03T03:32:28.095Z,11.83
2022-10-03T03:35:07.680Z,9.53
2022-10-03T03:37:46.063Z,9.43
2022-10-03T03:40:32.612Z,11.87
2022-10-03T03:43:24.579Z,10.33
2022-10-03T03:46:04.422Z,8.83
2022-10-03T03:48:44.937Z,14.60
2022-10-03T03:51:24.143Z,9.40
2022-10-03T03:54:26.132Z,13.40
2022-10-03T03:57:11.064Z,8.23
2022-10-03T03:59:59.068Z,11.27
2022-10-03T04:02:42.991Z,14.63
2022-10-03T04:05:24.547Z,14.53
2022-10-03T04:08:11.019Z,10.03
2022-10-03T04:10:53.285Z,7.60
2022-10-03T04:13:40.905Z,13.87
2022-10-03T04:16:41.665Z,12.80
2022-10-03T04:19:15.370Z,9.43
2022-10-03T04:22:05.935Z,13.50
2022-10-03T04:25:03.357Z,14.10
2022-10-03T04:27:48.038Z,13.53
2022-10-03T04:30:20.981Z,13.77
2022-10-03T04:33:02.911Z,12.93
2022-10-03T04:35:52.818Z,13.20
2022-10-03T04:38:40.011Z,11.70
2022-10-03T04:41:17.843Z,11.43
2022-10-03T04:43:53.732Z,10.17
2022-10-03T04:46:31.458Z,10.20
2022-10-03T04:49:06.697Z,10.97
2022-10-03T04:51:45.897Z,12.30
2022-10-03T04:54:22.763Z,11.63
2022-10-03T04:56:57.989Z,11.57
2022-10-03T04:59:47.224Z,14.53
2022-10-03T05:02:37.679Z,8.40
2022-10-03T05:05:27.659Z,12.60
2022-10-03T05:08:04.683Z,9.40
2022-10-03T05:10:49.175Z,14.23
2022-10-03T05:13:27.011Z,10.77
2022-10-03T05:16:04.877Z,15.03
2022-10-03T05:18:41.362Z,8.33
2022-10-03T05:21:15.949Z,8.50
2022-10-03T05:23:55.108Z,10.27
2022-10-03T05:26:45.551Z,12.17
2022-10-03T05:29:21.620Z,9.10
2022-10-03T05:31:57.107Z,8.57
2022-10-03T05:34:35.450Z,10.27
2022-10-03T05:37:25.130Z,10.60
2022-10-03T05:39:59.248Z,8.63
2022-10-03T05:42:45.055Z,10.70
2022-10-03T05:45:29.362Z,9.13
2022-10-03T05:48:15.750Z,15.13
2022-10-03T05:51:00.245Z,11.67
2022-10-03T05:53:48.239Z,12.87
2022-10-03T05:56:29.643Z,9.67
2022-10-03T05:59:44.000Z,13.13
2022-10-03T06:02:52.840Z,12.23
2022-10-03T06:05:32.152Z,18.23
2022-10-03T06:08:45.358Z,13.63
2022-10-03T06:11:28.200Z,13.73
2022-10-03T06:14:19.490Z,11.43
2022-10-03T06:16:57.608Z,11.13
2022-10-03T06:19:42.919Z,16.10
2022-10-03T06:22:40.037Z,16.00
2022-10-03T06:25:46.687Z,14.47
2022-10-03T06:28:44.857Z,14.90
2022-10-03T06:31:33.094Z,11.80
2022-10-03T06:34:36.032Z,16.03
2022-10-03T06:37:32.225Z,15.20
2022-10-03T06:40:40.012Z,12.03
2022-10-03T06:43:57.010Z,14.27
2022-10-03T06:47:05.440Z,13.63
2022-10-03T06:50:08.236Z,12.73
2022-10-03T06:53:20.320Z,15.23
2022-10-03T06:56:25.551Z,14.83
2022-10-03T06:59:39.896Z,19.57
2022-10-03T07:02:39.518Z,17.50
2022-10-03T07:05:46.255Z,19.67
2022-10-03T07:09:02.683Z,20.00
2022-10-03T07:11:49.736Z,17.03
2022-10-03T07:14:51.180Z,17.47
2022-10-03T07:17:39.104Z,21.53
2022-10-03T07:20:33.884Z,20.67
2022-10-03T07:23:33.080Z,17.57
2022-10-03T07:26:49.464Z,17.00
2022-10-03T07:29:25.697Z,18.13
2022-10-03T07:32:09.971Z,16.80
2022-10-03T07:35:11.266Z,19.67
2022-10-03T07:38:26.579Z,17.40
2022-10-03T07:41:21.290Z,15.93
2022-10-03T07:44:17.227Z,13.90
2022-10-03T07:47:13.535Z,17.80
2022-10-03T07:50:01.588Z,20.73
2022-10-03T07:52:54.139Z,17.83
2022-10-03T07:55:32.037Z,16.17
2022-10-03T07:58:26.229Z,16.87
2022-10-03T08:01:14.378Z,14.87
2022-10-03T08:04:12.364Z,16.63
2022-10-03T08:06:44.037Z,18.97
2022-10-03T08:09:43.922Z,18.13
2022-10-03T08:12:34.869Z,15.57
2022-10-03T08:15:10.919Z,17.50
2022-10-03T08:18:09.581Z,15.37
2022-10-03T08:20:55.157Z,13.70
2022-10-03T08:24:05.118Z,18.40
2022-10-03T08:26:51.399Z,15.27
2022-10-03T08:29:42.835Z,13.97
2022-10-03T08:32:48.901Z,16.20
2022-10-03T08:35:35.287Z,15.87
2022-10-03T08:38:36.553Z,17.47
2022-10-03T08:41:38.356Z,18.27
2022-10-03T08:44:34.069Z,12.63
2022-10-03T08:47:15.234Z,13.27
2022-10-03T08:50:31.123Z,15.50
2022-10-03T08:53:31.677Z,13.93
2022-10-03T08:56:06.650Z,15.67
2022-10-03T08:59:14.575Z,12.17
2022-10-03T09:02:08.120Z,12.47
2022-10-03T09:05:17.987Z,12.53
2022-10-03T09:08:32.914Z,11.47
2022-10-03T09:11:46.619Z,11.37
2022-10-03T09:15:00.044Z,10.20
2022-10-03T09:17:59.002Z,10.47
2022-10-03T09:21:08.924Z,12.27
2022-10-03T09:24:19.871Z,11.43
2022-10-03T09:27:14.767Z,10.70
2022-10-03T09:30:23.017Z,8.70
2022-10-03T09:33:28.900Z,8.27
2022-10-03T09:36:25.043Z,10.83
2022-10-03T09:39:27.298Z,7.73
2022-10-03T09:42:31.742Z,8.23
2022-10-03T09:45:24.210Z,8.67
2022-10-03T09:48:33.650Z,9.47
2022-10-03T09:51:31.041Z,8.27
2022-10-03T09:54:39.147Z,6.30
2022-10-03T09:57:42.107Z,6.63
2022-10-03T10:00:23.742Z,9.10
2022-10-03T10:03:29.741Z,9.13
2022-10-03T10:06:38.101Z,6.67
2022-10-03T10:09:36.043Z,5.47
2022-10-03T10:12:17.364Z,7.40
2022-10-03T10:15:14.176Z,6.87
2022-10-03T10:18:22.519Z,6.93
2022-10-03T10:21:26.302Z,4.73
2022-10-03T10:24:10.939Z,9.20
2022-10-03T10:27:14.160Z,7.20
2022-10-03T10:30:13.205Z,8.23
2022-10-03T10:33:18.441Z,6.10
2022-10-03T10:36:44.400Z,8.57
2022-10-03T10:40:10.013Z,6.57
2022-10-03T10:43:17.764Z,6.07
2022-10-03T10:46:12.587Z,6.07
2022-10-03T10:49:27.837Z,6.23
2022-10-03T10:52:23.892Z,7.10
2022-10-03T10:55:46.551Z,7.10
2022-10-03T10:58:58.772Z,7.17
2022-10-03T11:02:11.049Z,5.60
2022-10-03T11:05:29.710Z,8.07
2022-10-03T11:08:39.938Z,5.87
2022-10-03T11:11:45.105Z,4.43
2022-10-03T11:14:46.131Z,4.83
2022-10-03T11:17:44.015Z,4.53
2022-10-03T11:20:55.381Z,6.67
2022-10-03T11:24:06.383Z,4.00
2022-10-03T11:27:11.311Z,9.20
2022-10-03T11:30:12.747Z,5.17
2022-10-03T11:33:36.187Z,5.80
2022-10-03T11:36:27.077Z,7.50
2022-10-03T11:39:05.201Z,7.70
2022-10-03T11:41:48.816Z,3.33
2022-10-03T11:44:21.042Z,8.07
2022-10-03T11:46:57.079Z,6.07
2022-10-03T11:50:06.556Z,6.17
2022-10-03T11:52:39.670Z,8.23
2022-10-03T11:55:25.060Z,7.33
2022-10-03T11:58:04.726Z,5.97
2022-10-03T12:00:37.222Z,4.63
2022-10-03T12:03:15.187Z,4.83
2022-10-03T12:05:52.724Z,4.70
2022-10-03T12:08:44.171Z,5.07
2022-10-03T12:11:19.580Z,6.33
2022-10-03T12:13:57.647Z,5.33
2022-10-03T12:16:29.600Z,7.67
2022-10-03T12:19:06.617Z,9.03
2022-10-03T12:21:46.698Z,7.13
2022-10-03T12:24:24.362Z,6.77
2022-10-03T12:26:58.799Z,6.03
2022-10-03T12:29:32.271Z,7.37
2022-10-03T12:32:15.911Z,6.17
2022-10-03T12:34:49.322Z,7.07
2022-10-03T12:37:51.555Z,4.00
2022-10-03T12:40:25.248Z,7.10
2022-10-03T12:43:05.747Z,5.63
2022-10-03T12:45:38.563Z,8.37
2022-10-03T12:48:23.971Z,6.87
2022-10-03T12:50:57.025Z,4.13
2022-10-03T12:53:50.171Z,3.73
2022-10-03T12:56:23.742Z,5.30
2022-10-03T12:59:05.605Z,6.00
2022-10-03T13:01:58.155Z,4.83
2022-10-03T13:04:35.938Z,6.70
2022-10-03T13:07:16.050Z,3.73
2022-10-03T13:10:11.938Z,6.10
2022-10-03T13:12:49.240Z,5.80
2022-10-03T13:15:44.238Z,10.80
2022-10-03T13:18:35.279Z,6.03
2022-10-03T13:21:26.696Z,4.93
2022-10-03T13:24:01.059Z,6.03
2022-10-03T13:26:45.923Z,5.13
2022-10-03T13:29:23.683Z,7.60
2022-10-03T13:32:11.994Z,4.97
2022-10-03T13:34:57.611Z,7.80
2022-10-03T13:37:33.610Z,4.80
2022-10-03T13:40:09.047Z,18.10
2022-10-03T13:42:41.697Z,5.87
2022-10-03T13:45:15.299Z,7.47
2022-10-03T13:47:51.870Z,6.10
2022-10-03T13:50:26.577Z,4.13
2022-10-03T13:53:00.907Z,7.73
2022-10-03T13:55:41.331Z,3.83
2022-10-03T13:58:44.012Z,5.30
2022-10-03T14:01:33.395Z,5.00
2022-10-03T14:04:26.065Z,5.37
2022-10-03T14:07:01.576Z,4.87
2022-10-03T14:09:50.940Z,3.70
2022-10-03T14:12:43.931Z,6.53
2022-10-03T14:15:27.146Z,6.67
2022-10-03T14:18:05.307Z,4.97
2022-10-03T14:20:40.294Z,5.43
2022-10-03T14:23:21.245Z,4.77
2022-10-03T14:25:55.756Z,3.83
2022-10-03T14:28:29.429Z,4.90
2022-10-03T14:31:07.785Z,6.23
2022-10-03T14:33:44.826Z,5.03
2022-10-03T14:36:37.474Z,3.60
2022-10-03T14:39:21.915Z,5.57
2022-10-03T14:42:10.816Z,5.47
2022-10-03T14:44:41.937Z,5.67
2022-10-03T14:47:14.032Z,5.33
2022-10-03T14:49:58.805Z,4.77
2022-10-03T14:52:33.275Z,4.57
2022-10-03T14:55:13.223Z,6.50
2022-10-03T14:58:08.883Z,4.27
2022-10-03T15:00:39.194Z,3.27
2022-10-03T15:03:33.356Z,3.70
2022-10-03T15:06:18.724Z,5.20
2022-10-03T15:08:49.182Z,7.00
2022-10-03T15:11:24.042Z,3.33
2022-10-03T15:13:56.191Z,4.83
2022-10-03T15:16:25.265Z,6.03
2022-10-03T15:18:57.707Z,4.40
2022-10-03T15:21:27.871Z,4.27
2022-10-03T15:24:00.090Z,6.60
2022-10-03T15:26:33.755Z,5.60
2022-10-03T15:29:04.507Z,5.97
2022-10-03T15:31:36.541Z,6.97
2022-10-03T15:34:15.859Z,5.50
2022-10-03T15:36:48.725Z,5.20
2022-10-03T15:39:21.300Z,5.23
2022-10-03T15:41:54.179Z,6.93
2022-10-03T15:44:28.917Z,7.00
2022-10-03T15:47:01.619Z,3.83
2022-10-03T15:49:34.686Z,5.93
2022-10-03T15:52:15.505Z,4.27
2022-10-03T15:54:48.740Z,5.63
2022-10-03T15:57:22.588Z,5.20
2022-10-03T15:59:57.238Z,6.73
2022-10-03T16:02:33.990Z,5.60
2022-10-03T16:05:05.928Z,6.70
2022-10-03T16:07:42.772Z,4.83
2022-10-03T16:10:20.465Z,5.40
2022-10-03T16:13:03.459Z,5.70
2022-10-03T16:15:53.234Z,5.47
2022-10-03T16:18:54.628Z,6.87
2022-10-03T16:21:44.745Z,4.63
2022-10-03T16:24:29.598Z,7.17
2022-10-03T16:27:05.580Z,6.33
2022-10-03T16:29:37.625Z,6.53
2022-10-03T16:32:08.456Z,6.50
2022-10-03T16:34:41.975Z,5.10
2022-10-03T16:37:21.060Z,7.10
2022-10-03T16:39:56.484Z,6.77
2022-10-03T16:42:26.599Z,4.37
2022-10-03T16:44:57.928Z,4.23
2022-10-03T16:47:35.327Z,6.73
2022-10-03T16:50:22.609Z,6.83
2022-10-03T16:52:54.068Z,7.13
2022-10-03T16:55:27.653Z,5.37
2022-10-03T16:57:59.022Z,7.37
2022-10-03T17:00:31.683Z,8.23
2022-10-03T17:02:59.763Z,7.87
2022-10-03T17:05:27.906Z,8.63
2022-10-03T17:08:06.701Z,5.13
2022-10-03T17:10:48.348Z,6.50
2022-10-03T17:13:19.589Z,4.77
2022-10-03T17:15:53.155Z,9.97
2022-10-03T17:18:26.079Z,6.83
2022-10-03T17:21:01.755Z,6.83
2022-10-03T17:23:36.339Z,6.70
2022-10-03T17:26:10.555Z,7.03
2022-10-03T17:28:45.924Z,6.87
2022-10-03T17:31:28.846Z,8.50
2022-10-03T17:34:04.981Z,5.10
2022-10-03T17:37:03.425Z,8.27
2022-10-03T17:39:46.888Z,7.33
2022-10-03T17:42:44.407Z,8.17
2022-10-03T17:45:23.836Z,8.13
2022-10-03T17:47:58.793Z,7.17
2022-10-03T17:50:31.483Z,6.00
2022-10-03T17:53:01.584Z,10.67
2022-10-03T17:55:37.823Z,7.70
2022-10-03T17:58:08.608Z,8.30
2022-10-03T18:00:57.444Z,10.07
2022-10-03T18:03:30.455Z,8.50
2022-10-03T18:06:03.152Z,8.97
2022-10-03T18:08:35.605Z,10.43
2022-10-03T18:11:06.599Z,10.67
2022-10-03T18:13:39.472Z,11.87
2022-10-03T18:16:23.866Z,10.67
2022-10-03T18:19:10.718Z,11.90
2022-10-03T18:22:09.649Z,7.60
2022-10-03T18:24:48.997Z,6.33
2022-10-03T18:27:46.233Z,9.93
2022-10-03T18:30:19.479Z,7.83
2022-10-03T18:32:49.539Z,8.67
2022-10-03T18:35:22.112Z,9.17
2022-10-03T18:38:07.062Z,9.27
2022-10-03T18:40:41.522Z,9.10
2022-10-03T18:43:32.384Z,6.80
2022-10-03T18:46:16.196Z,9.07
2022-10-03T18:49:15.772Z,10.10
2022-10-03T18:51:43.671Z,9.57
2022-10-03T18:54:24.517Z,11.97
2022-10-03T18:57:06.184Z,14.27
2022-10-03T18:59:45.041Z,13.17
2022-10-03T19:02:22.598Z,13.83
2022-10-03T19:04:55.290Z,14.80
2022-10-03T19:07:25.515Z,11.37
2022-10-03T19:10:31.565Z,9.87
2022-10-03T19:13:05.552Z,11.40
2022-10-03T19:15:49.494Z,11.33
2022-10-03T19:18:23.414Z,12.30
2022-10-03T19:20:53.889Z,13.20
2022-10-03T19:23:27.276Z,11.63
2022-10-03T19:25:57.726Z,17.63
2022-10-03T19:28:29.227Z,14.83
2022-10-03T19:31:04.550Z,13.03
2022-10-03T19:33:35.675Z,12.80
2022-10-03T19:36:07.782Z,12.83
2022-10-03T19:38:40.387Z,17.63
2022-10-03T19:41:21.619Z,11.50
2022-10-03T19:43:50.411Z,13.77
2022-10-03T19:46:50.293Z,10.73
2022-10-03T19:49:30.737Z,14.50
2022-10-03T19:52:15.807Z,10.40
2022-10-03T19:54:52.476Z,11.37
2022-10-03T19:57:24.551Z,14.10
2022-10-03T19:59:54.424Z,13.13
2022-10-03T20:02:25.730Z,10.47
2022-10-03T20:04:57.347Z,11.93
2022-10-03T20:07:41.432Z,13.13
2022-10-03T20:10:37.217Z,12.87
2022-10-03T20:13:05.263Z,12.37
2022-10-03T20:15:39.191Z,13.73
2022-10-03T20:18:12.378Z,10.13
2022-10-03T20:20:41.013Z,11.17
2022-10-03T20:23:14.664Z,10.33
2022-10-03T20:25:50.845Z,10.63
2022-10-03T20:28:23.272Z,14.47
2022-10-03T20:30:53.427Z,10.43
2022-10-03T20:33:25.383Z,12.27
2022-10-03T20:35:59.347Z,11.43
2022-10-03T20:38:38.614Z,10.50
2022-10-03T20:41:10.860Z,11.77
2022-10-03T20:43:42.439Z,11.60
2022-10-03T20:46:20.557Z,15.23
2022-10-03T20:49:11.512Z,15.27
2022-10-03T20:51:43.411Z,12.70
2022-10-03T20:54:17.633Z,9.43
2022-10-03T20:56:57.964Z,10.60
2022-10-03T20:59:37.344Z,11.87
2022-10-03T21:02:14.365Z,13.27
2022-10-03T21:04:52.967Z,11.00
2022-10-03T21:07:29.349Z,14.83
2022-10-03T21:10:04.284Z,12.17
2022-10-03T21:12:37.231Z,12.87
2022-10-03T21:15:15.576Z,16.60
2022-10-03T21:17:45.368Z,12.77
2022-10-03T21:20:18.916Z,15.03
2022-10-03T21:22:50.711Z,20.30
2022-10-03T21:25:22.638Z,12.80
2022-10-03T21:27:55.436Z,15.70
2022-10-03T21:30:38.276Z,8.67
2022-10-03T21:33:12.555Z,13.20
2022-10-03T21:35:44.052Z,10.93
2022-10-03T21:38:21.134Z,10.10
2022-10-03T21:41:24.839Z,11.33
2022-10-03T21:43:55.640Z,11.53
2022-10-03T21:46:35.289Z,15.40
2022-10-03T21:49:47.537Z,13.13
2022-10-03T21:52:30.499Z,13.27
2022-10-03T21:55:17.353Z,15.47
2022-10-03T21:57:56.420Z,15.27
2022-10-03T22:00:29.016Z,21.53
2022-10-03T22:03:06.568Z,17.63
2022-10-03T22:05:46.399Z,18.30
2022-10-03T22:08:22.577Z,14.40
2022-10-03T22:11:02.792Z,14.40
2022-10-03T22:13:35.281Z,14.20
2022-10-03T22:16:09.967Z,13.47
2022-10-03T22:19:05.899Z,17.60
2022-10-03T22:21:42.197Z,13.63
2022-10-03T22:24:17.631Z,16.60
2022-10-03T22:26:52.168Z,20.43
2022-10-03T22:29:28.260Z,15.03
2022-10-03T22:32:03.540Z,14.13
2022-10-03T22:34:42.355Z,15.67
2022-10-03T22:37:10.499Z,13.00
2022-10-03T22:39:40.325Z,15.47
2022-10-03T22:42:08.697Z,15.70
2022-10-03T22:44:39.014Z,12.83
2022-10-03T22:47:14.552Z,13.33
2022-10-03T22:49:45.049Z,13.23
2022-10-03T22:52:19.528Z,11.77
2022-10-03T22:54:51.993Z,12.47
2022-10-03T22:57:20.684Z,11.63
2022-10-03T22:59:52.279Z,14.70
2022-10-03T23:02:26.815Z,11.10
2022-10-03T23:04:57.641Z,12.13
2022-10-03T23:07:56.110Z,10.13
2022-10-03T23:10:39.587Z,14.60
2022-10-03T23:13:15.282Z,11.73
2022-10-03T23:15:47.519Z,10.27
2022-10-03T23:18:37.887Z,12.60
2022-10-03T23:21:08.352Z,13.83
2022-10-03T23:23:45.766Z,11.53
2022-10-03T23:26:44.473Z,12.30
2022-10-03T23:29:13.930Z,13.97
2022-10-03T23:32:01.721Z,11.57
2022-10-03T23:35:07.127Z,11.80
2022-10-03T23:37:46.350Z,11.40
2022-10-03T23:40:36.727Z,11.30
2022-10-03T23:43:25.687Z,11.43
2022-10-03T23:45:56.940Z,14.23
2022-10-03T23:48:26.712Z,11.73
2022-10-03T23:50:58.499Z,12.73
2022-10-03T23:53:32.358Z,11.70
2022-10-03T23:56:03.050Z,10.33
2022-10-03T23:58:35.025Z,13.43
